sensor_id;sensor_type;location;lat;lon;timestamp;temperature;humidity
43627;DHT22;29217;52.586;13.442;2023-06-26T00:00:14;18.00;99.90
43627;DHT22;29217;52.586;13.442;2023-06-26T00:02:40;17.90;99.90
43627;DHT22;29217;52.586;13.442;2023-06-26T00:05:06;17.90;99.90
43627;DHT22;29217;52.586;13.442;2023-06-26T00:07:32;17.90;99.90
43627;DHT22;29217;52.586;13.442;2023-06-26T00:09:59;17.90;99.90
43627;DHT22;29217;52.586;13.442;2023-06-26T00:12:26;17.80;99.90
43627;DHT22;29217;52.586;13.442;2023-06-26T00:14:52;17.80;99.90
43627;DHT22;29217;52.586;13.442;2023-06-26T00:17:17;17.80;99.90
43627;DHT22;29217;52.586;13.442;2023-06-26T00:19:43;17.80;99.90
43627;DHT22;29217;52.586;13.442;2023-06-26T00:22:09;17.70;99.90
43627;DHT22;29217;52.586;13.442;2023-06-26T00:24:34;17.80;99.90
43627;DHT22;29217;52.586;13.442;2023-06-26T00:27:00;17.80;99.90
43627;DHT22;29217;52.586;13.442;2023-06-26T00:29:26;17.70;99.90
43627;DHT22;29217;52.586;13.442;2023-06-26T00:31:51;17.80;99.90
43627;DHT22;29217;52.586;13.442;2023-06-26T00:34:17;17.80;99.90
43627;DHT22;29217;52.586;13.442;2023-06-26T00:36:43;17.80;99.90
43627;DHT22;29217;52.586;13.442;2023-06-26T00:39:09;17.70;99.90
43627;DHT22;29217;52.586;13.442;2023-06-26T00:41:36;17.80;99.90
43627;DHT22;29217;52.586;13.442;2023-06-26T00:44:03;17.80;99.90
43627;DHT22;29217;52.586;13.442;2023-06-26T00:46:29;17.80;99.90
43627;DHT22;29217;52.586;13.442;2023-06-26T00:48:55;17.80;99.90
43627;DHT22;29217;52.586;13.442;2023-06-26T00:51:23;17.80;99.90
43627;DHT22;29217;52.586;13.442;2023-06-26T00:53:49;17.80;99.90
43627;DHT22;29217;52.586;13.442;2023-06-26T00:56:15;17.80;99.90
43627;DHT22;29217;52.586;13.442;2023-06-26T00:58:42;17.80;99.90
43627;DHT22;29217;52.586;13.442;2023-06-26T01:01:08;17.70;99.90
43627;DHT22;29217;52.586;13.442;2023-06-26T01:03:34;17.70;99.90
43627;DHT22;29217;52.586;13.442;2023-06-26T01:06:01;17.70;99.90
43627;DHT22;29217;52.586;13.442;2023-06-26T01:08:27;17.80;99.90
43627;DHT22;29217;52.586;13.442;2023-06-26T01:10:53;17.90;99.90
43627;DHT22;29217;52.586;13.442;2023-06-26T01:13:19;17.90;99.90
43627;DHT22;29217;52.586;13.442;2023-06-26T01:15:45;18.00;99.90
43627;DHT22;29217;52.586;13.442;2023-06-26T01:18:11;18.00;99.90
43627;DHT22;29217;52.586;13.442;2023-06-26T01:20:38;18.00;99.90
43627;DHT22;29217;52.586;13.442;2023-06-26T01:23:30;18.10;99.90
43627;DHT22;29217;52.586;13.442;2023-06-26T01:26:20;18.10;99.90
43627;DHT22;29217;52.586;13.442;2023-06-26T01:28:46;18.10;99.90
43627;DHT22;29217;52.586;13.442;2023-06-26T01:31:13;18.10;99.90
43627;DHT22;29217;52.586;13.442;2023-06-26T01:33:40;18.00;99.90
43627;DHT22;29217;52.586;13.442;2023-06-26T01:36:07;18.10;99.90
43627;DHT22;29217;52.586;13.442;2023-06-26T01:38:33;18.10;99.90
43627;DHT22;29217;52.586;13.442;2023-06-26T01:41:00;18.10;99.90
43627;DHT22;29217;52.586;13.442;2023-06-26T01:43:43;18.10;99.90
43627;DHT22;29217;52.586;13.442;2023-06-26T01:46:27;18.10;99.90
43627;DHT22;29217;52.586;13.442;2023-06-26T01:51:27;18.10;99.90
43627;DHT22;29217;52.586;13.442;2023-06-26T01:53:57;18.10;99.90
43627;DHT22;29217;52.586;13.442;2023-06-26T01:56:24;18.10;99.90
43627;DHT22;29217;52.586;13.442;2023-06-26T01:58:51;18.00;99.90
43627;DHT22;29217;52.586;13.442;2023-06-26T02:01:20;18.00;99.90
43627;DHT22;29217;52.586;13.442;2023-06-26T02:03:47;18.00;99.90
43627;DHT22;29217;52.586;13.442;2023-06-26T02:06:12;18.00;99.90
43627;DHT22;29217;52.586;13.442;2023-06-26T02:08:38;18.00;99.90
43627;DHT22;29217;52.586;13.442;2023-06-26T02:11:04;18.00;99.90
43627;DHT22;29217;52.586;13.442;2023-06-26T02:13:29;18.00;99.90
43627;DHT22;29217;52.586;13.442;2023-06-26T02:15:55;18.00;99.90
43627;DHT22;29217;52.586;13.442;2023-06-26T02:18:21;18.00;99.90
43627;DHT22;29217;52.586;13.442;2023-06-26T02:20:48;18.00;99.90
43627;DHT22;29217;52.586;13.442;2023-06-26T02:23:14;18.00;99.90
43627;DHT22;29217;52.586;13.442;2023-06-26T02:25:39;18.10;99.90
43627;DHT22;29217;52.586;13.442;2023-06-26T02:28:05;18.10;99.90
43627;DHT22;29217;52.586;13.442;2023-06-26T02:30:30;18.10;99.90
43627;DHT22;29217;52.586;13.442;2023-06-26T02:32:56;18.10;99.90
43627;DHT22;29217;52.586;13.442;2023-06-26T02:35:22;18.10;99.90
43627;DHT22;29217;52.586;13.442;2023-06-26T02:37:47;18.00;99.90
43627;DHT22;29217;52.586;13.442;2023-06-26T02:40:13;18.00;99.90
43627;DHT22;29217;52.586;13.442;2023-06-26T02:42:38;18.10;99.90
43627;DHT22;29217;52.586;13.442;2023-06-26T02:45:04;18.10;99.90
43627;DHT22;29217;52.586;13.442;2023-06-26T02:47:30;18.10;99.90
43627;DHT22;29217;52.586;13.442;2023-06-26T02:49:56;18.10;99.90
43627;DHT22;29217;52.586;13.442;2023-06-26T02:52:21;18.10;99.90
43627;DHT22;29217;52.586;13.442;2023-06-26T02:54:47;18.10;99.90
43627;DHT22;29217;52.586;13.442;2023-06-26T02:57:12;18.10;99.90
43627;DHT22;29217;52.586;13.442;2023-06-26T02:59:40;18.10;99.90
43627;DHT22;29217;52.586;13.442;2023-06-26T03:02:05;18.10;99.90
43627;DHT22;29217;52.586;13.442;2023-06-26T03:04:31;18.00;99.90
43627;DHT22;29217;52.586;13.442;2023-06-26T03:06:57;18.00;99.90
43627;DHT22;29217;52.586;13.442;2023-06-26T03:09:22;18.00;99.90
43627;DHT22;29217;52.586;13.442;2023-06-26T03:11:48;17.90;99.90
43627;DHT22;29217;52.586;13.442;2023-06-26T03:14:13;17.90;99.90
43627;DHT22;29217;52.586;13.442;2023-06-26T03:16:40;17.90;99.90
43627;DHT22;29217;52.586;13.442;2023-06-26T03:19:05;17.80;99.90
43627;DHT22;29217;52.586;13.442;2023-06-26T03:21:32;17.80;99.90
43627;DHT22;29217;52.586;13.442;2023-06-26T03:23:58;17.70;99.90
43627;DHT22;29217;52.586;13.442;2023-06-26T03:26:23;17.80;99.90
43627;DHT22;29217;52.586;13.442;2023-06-26T03:28:53;17.80;99.90
43627;DHT22;29217;52.586;13.442;2023-06-26T03:31:19;17.80;99.90
43627;DHT22;29217;52.586;13.442;2023-06-26T03:33:45;17.80;99.90
43627;DHT22;29217;52.586;13.442;2023-06-26T03:36:10;17.80;99.90
43627;DHT22;29217;52.586;13.442;2023-06-26T03:38:36;17.70;99.90
43627;DHT22;29217;52.586;13.442;2023-06-26T03:41:02;17.70;99.90
43627;DHT22;29217;52.586;13.442;2023-06-26T03:43:28;17.70;99.90
43627;DHT22;29217;52.586;13.442;2023-06-26T03:45:53;17.70;99.90
43627;DHT22;29217;52.586;13.442;2023-06-26T03:48:19;17.80;99.90
43627;DHT22;29217;52.586;13.442;2023-06-26T03:50:45;17.70;99.90
43627;DHT22;29217;52.586;13.442;2023-06-26T03:53:10;17.70;99.90
43627;DHT22;29217;52.586;13.442;2023-06-26T03:55:37;17.70;99.90
43627;DHT22;29217;52.586;13.442;2023-06-26T03:58:04;17.70;99.90
43627;DHT22;29217;52.586;13.442;2023-06-26T04:00:29;17.80;99.90
43627;DHT22;29217;52.586;13.442;2023-06-26T04:02:55;17.80;99.90
43627;DHT22;29217;52.586;13.442;2023-06-26T04:05:20;17.90;99.90
43627;DHT22;29217;52.586;13.442;2023-06-26T04:07:50;17.80;99.90
43627;DHT22;29217;52.586;13.442;2023-06-26T04:10:15;17.80;99.90
43627;DHT22;29217;52.586;13.442;2023-06-26T04:12:41;17.90;99.90
43627;DHT22;29217;52.586;13.442;2023-06-26T04:15:07;18.00;99.90
43627;DHT22;29217;52.586;13.442;2023-06-26T04:17:33;18.10;99.90
43627;DHT22;29217;52.586;13.442;2023-06-26T04:19:58;18.20;99.90
43627;DHT22;29217;52.586;13.442;2023-06-26T04:22:24;18.30;99.90
43627;DHT22;29217;52.586;13.442;2023-06-26T04:24:51;18.50;99.90
43627;DHT22;29217;52.586;13.442;2023-06-26T04:27:17;18.60;99.90
43627;DHT22;29217;52.586;13.442;2023-06-26T04:29:43;18.60;99.90
43627;DHT22;29217;52.586;13.442;2023-06-26T04:32:09;18.70;99.90
43627;DHT22;29217;52.586;13.442;2023-06-26T04:34:35;18.80;99.90
43627;DHT22;29217;52.586;13.442;2023-06-26T04:37:02;18.90;99.90
43627;DHT22;29217;52.586;13.442;2023-06-26T04:39:29;19.10;99.90
43627;DHT22;29217;52.586;13.442;2023-06-26T04:41:55;19.20;99.90
43627;DHT22;29217;52.586;13.442;2023-06-26T04:44:21;19.20;99.90
43627;DHT22;29217;52.586;13.442;2023-06-26T04:46:46;19.40;99.90
43627;DHT22;29217;52.586;13.442;2023-06-26T04:49:12;19.40;99.90
43627;DHT22;29217;52.586;13.442;2023-06-26T04:51:37;19.50;99.90
43627;DHT22;29217;52.586;13.442;2023-06-26T04:54:07;19.60;99.90
43627;DHT22;29217;52.586;13.442;2023-06-26T04:56:33;19.70;99.90
43627;DHT22;29217;52.586;13.442;2023-06-26T04:58:59;19.80;99.90
43627;DHT22;29217;52.586;13.442;2023-06-26T05:01:24;19.90;99.90
43627;DHT22;29217;52.586;13.442;2023-06-26T05:03:50;20.00;99.90
43627;DHT22;29217;52.586;13.442;2023-06-26T05:06:15;20.20;99.90
43627;DHT22;29217;52.586;13.442;2023-06-26T05:08:41;20.50;99.90
43627;DHT22;29217;52.586;13.442;2023-06-26T05:11:07;20.70;99.90
43627;DHT22;29217;52.586;13.442;2023-06-26T05:13:32;20.80;99.90
43627;DHT22;29217;52.586;13.442;2023-06-26T05:15:58;21.00;99.90
43627;DHT22;29217;52.586;13.442;2023-06-26T05:18:23;21.20;99.90
43627;DHT22;29217;52.586;13.442;2023-06-26T05:20:49;21.30;99.90
43627;DHT22;29217;52.586;13.442;2023-06-26T05:23:16;21.40;99.90
43627;DHT22;29217;52.586;13.442;2023-06-26T05:25:42;21.50;99.90
43627;DHT22;29217;52.586;13.442;2023-06-26T05:28:08;21.50;99.90
43627;DHT22;29217;52.586;13.442;2023-06-26T05:30:36;21.50;99.90
43627;DHT22;29217;52.586;13.442;2023-06-26T05:33:02;21.50;99.90
43627;DHT22;29217;52.586;13.442;2023-06-26T05:35:29;21.60;99.90
43627;DHT22;29217;52.586;13.442;2023-06-26T05:37:56;21.60;99.90
43627;DHT22;29217;52.586;13.442;2023-06-26T05:40:22;21.70;99.90
43627;DHT22;29217;52.586;13.442;2023-06-26T05:42:48;21.80;99.90
43627;DHT22;29217;52.586;13.442;2023-06-26T05:45:14;21.90;99.90
43627;DHT22;29217;52.586;13.442;2023-06-26T05:47:39;21.90;99.90
43627;DHT22;29217;52.586;13.442;2023-06-26T05:50:07;22.00;99.90
43627;DHT22;29217;52.586;13.442;2023-06-26T05:52:33;22.10;99.90
43627;DHT22;29217;52.586;13.442;2023-06-26T05:54:59;22.20;99.90
43627;DHT22;29217;52.586;13.442;2023-06-26T05:57:27;22.20;99.90
43627;DHT22;29217;52.586;13.442;2023-06-26T05:59:53;22.30;99.90
43627;DHT22;29217;52.586;13.442;2023-06-26T06:02:18;22.30;99.90
43627;DHT22;29217;52.586;13.442;2023-06-26T06:04:44;22.30;99.90
43627;DHT22;29217;52.586;13.442;2023-06-26T06:07:10;22.40;99.90
43627;DHT22;29217;52.586;13.442;2023-06-26T06:09:35;22.40;99.90
43627;DHT22;29217;52.586;13.442;2023-06-26T06:12:01;22.50;99.90
43627;DHT22;29217;52.586;13.442;2023-06-26T06:14:29;22.50;99.90
43627;DHT22;29217;52.586;13.442;2023-06-26T06:16:54;22.60;99.90
43627;DHT22;29217;52.586;13.442;2023-06-26T06:19:20;22.70;99.90
43627;DHT22;29217;52.586;13.442;2023-06-26T06:21:45;22.70;99.90
43627;DHT22;29217;52.586;13.442;2023-06-26T06:24:11;22.80;99.90
43627;DHT22;29217;52.586;13.442;2023-06-26T06:26:37;22.90;99.90
43627;DHT22;29217;52.586;13.442;2023-06-26T06:29:02;22.90;99.90
43627;DHT22;29217;52.586;13.442;2023-06-26T06:31:28;23.00;99.90
43627;DHT22;29217;52.586;13.442;2023-06-26T06:33:56;23.00;99.90
43627;DHT22;29217;52.586;13.442;2023-06-26T06:36:22;23.10;99.90
43627;DHT22;29217;52.586;13.442;2023-06-26T06:38:48;23.20;99.90
43627;DHT22;29217;52.586;13.442;2023-06-26T06:41:13;23.20;99.90
43627;DHT22;29217;52.586;13.442;2023-06-26T06:43:39;23.30;99.90
43627;DHT22;29217;52.586;13.442;2023-06-26T06:46:05;23.30;99.90
43627;DHT22;29217;52.586;13.442;2023-06-26T06:48:31;23.40;99.90
43627;DHT22;29217;52.586;13.442;2023-06-26T06:50:57;23.40;99.90
43627;DHT22;29217;52.586;13.442;2023-06-26T06:53:23;23.50;99.90
43627;DHT22;29217;52.586;13.442;2023-06-26T06:55:49;23.60;99.90
43627;DHT22;29217;52.586;13.442;2023-06-26T06:58:15;23.70;99.90
43627;DHT22;29217;52.586;13.442;2023-06-26T07:00:48;23.70;99.90
43627;DHT22;29217;52.586;13.442;2023-06-26T07:03:13;23.80;99.90
43627;DHT22;29217;52.586;13.442;2023-06-26T07:05:41;23.90;99.90
43627;DHT22;29217;52.586;13.442;2023-06-26T07:08:07;24.00;99.90
43627;DHT22;29217;52.586;13.442;2023-06-26T07:10:34;24.10;99.90
43627;DHT22;29217;52.586;13.442;2023-06-26T07:12:59;24.20;99.90
43627;DHT22;29217;52.586;13.442;2023-06-26T07:15:25;24.30;99.90
43627;DHT22;29217;52.586;13.442;2023-06-26T07:17:51;24.40;99.90
43627;DHT22;29217;52.586;13.442;2023-06-26T07:20:16;24.50;99.90
43627;DHT22;29217;52.586;13.442;2023-06-26T07:22:42;24.60;99.90
43627;DHT22;29217;52.586;13.442;2023-06-26T07:25:10;24.60;99.90
43627;DHT22;29217;52.586;13.442;2023-06-26T07:27:39;24.60;99.90
43627;DHT22;29217;52.586;13.442;2023-06-26T07:30:05;24.80;99.90
43627;DHT22;29217;52.586;13.442;2023-06-26T07:32:31;24.80;99.90
43627;DHT22;29217;52.586;13.442;2023-06-26T07:34:56;24.80;99.90
43627;DHT22;29217;52.586;13.442;2023-06-26T07:37:22;24.80;99.90
43627;DHT22;29217;52.586;13.442;2023-06-26T07:39:49;24.90;99.90
43627;DHT22;29217;52.586;13.442;2023-06-26T07:42:14;25.00;99.90
43627;DHT22;29217;52.586;13.442;2023-06-26T07:44:42;25.10;99.90
43627;DHT22;29217;52.586;13.442;2023-06-26T07:47:08;25.20;99.90
43627;DHT22;29217;52.586;13.442;2023-06-26T07:49:34;25.30;99.90
43627;DHT22;29217;52.586;13.442;2023-06-26T07:52:00;25.40;99.90
43627;DHT22;29217;52.586;13.442;2023-06-26T07:54:25;25.40;99.90
43627;DHT22;29217;52.586;13.442;2023-06-26T07:57:03;25.50;99.90
43627;DHT22;29217;52.586;13.442;2023-06-26T07:59:30;25.50;99.90
43627;DHT22;29217;52.586;13.442;2023-06-26T08:01:56;25.60;99.90
43627;DHT22;29217;52.586;13.442;2023-06-26T08:04:24;25.70;99.90
43627;DHT22;29217;52.586;13.442;2023-06-26T08:06:55;25.80;99.90
43627;DHT22;29217;52.586;13.442;2023-06-26T08:09:23;25.90;99.90
43627;DHT22;29217;52.586;13.442;2023-06-26T08:11:49;26.00;99.90
43627;DHT22;29217;52.586;13.442;2023-06-26T08:14:15;26.10;99.90
43627;DHT22;29217;52.586;13.442;2023-06-26T08:16:41;26.10;99.90
43627;DHT22;29217;52.586;13.442;2023-06-26T08:19:08;26.00;99.90
43627;DHT22;29217;52.586;13.442;2023-06-26T08:21:34;26.00;99.90
43627;DHT22;29217;52.586;13.442;2023-06-26T08:23:59;26.10;99.90
43627;DHT22;29217;52.586;13.442;2023-06-26T08:26:25;26.20;99.90
43627;DHT22;29217;52.586;13.442;2023-06-26T08:28:50;26.30;99.90
43627;DHT22;29217;52.586;13.442;2023-06-26T08:31:16;26.30;99.90
43627;DHT22;29217;52.586;13.442;2023-06-26T08:33:42;26.30;99.90
43627;DHT22;29217;52.586;13.442;2023-06-26T08:36:08;26.40;99.90
43627;DHT22;29217;52.586;13.442;2023-06-26T08:38:33;26.40;99.90
43627;DHT22;29217;52.586;13.442;2023-06-26T08:40:59;26.50;99.90
43627;DHT22;29217;52.586;13.442;2023-06-26T08:43:25;26.60;99.90
43627;DHT22;29217;52.586;13.442;2023-06-26T08:45:52;26.70;99.90
43627;DHT22;29217;52.586;13.442;2023-06-26T08:48:18;26.70;99.90
43627;DHT22;29217;52.586;13.442;2023-06-26T08:50:48;26.80;99.90
43627;DHT22;29217;52.586;13.442;2023-06-26T08:53:33;26.90;99.90
43627;DHT22;29217;52.586;13.442;2023-06-26T08:55:59;27.00;99.90
43627;DHT22;29217;52.586;13.442;2023-06-26T08:58:25;27.20;99.90
43627;DHT22;29217;52.586;13.442;2023-06-26T09:00:51;27.20;99.90
43627;DHT22;29217;52.586;13.442;2023-06-26T09:03:17;27.30;99.90
43627;DHT22;29217;52.586;13.442;2023-06-26T09:05:43;27.30;99.90
43627;DHT22;29217;52.586;13.442;2023-06-26T09:08:09;27.40;99.90
43627;DHT22;29217;52.586;13.442;2023-06-26T09:10:35;27.40;99.90
43627;DHT22;29217;52.586;13.442;2023-06-26T09:13:00;27.50;99.90
43627;DHT22;29217;52.586;13.442;2023-06-26T09:15:27;27.60;99.90
43627;DHT22;29217;52.586;13.442;2023-06-26T09:17:56;27.60;99.90
43627;DHT22;29217;52.586;13.442;2023-06-26T09:20:23;27.50;99.90
43627;DHT22;29217;52.586;13.442;2023-06-26T09:22:48;27.60;99.90
43627;DHT22;29217;52.586;13.442;2023-06-26T09:25:17;27.50;99.90
43627;DHT22;29217;52.586;13.442;2023-06-26T09:27:43;27.60;99.90
43627;DHT22;29217;52.586;13.442;2023-06-26T09:30:09;27.60;99.90
43627;DHT22;29217;52.586;13.442;2023-06-26T09:32:35;27.60;99.90
43627;DHT22;29217;52.586;13.442;2023-06-26T09:35:03;27.70;99.90
43627;DHT22;29217;52.586;13.442;2023-06-26T09:37:29;27.80;99.90
43627;DHT22;29217;52.586;13.442;2023-06-26T09:39:55;27.90;99.90
43627;DHT22;29217;52.586;13.442;2023-06-26T09:42:21;28.00;99.90
43627;DHT22;29217;52.586;13.442;2023-06-26T09:44:47;28.10;99.90
43627;DHT22;29217;52.586;13.442;2023-06-26T09:47:17;28.10;99.90
43627;DHT22;29217;52.586;13.442;2023-06-26T09:49:44;28.10;99.90
43627;DHT22;29217;52.586;13.442;2023-06-26T09:52:10;28.10;99.90
43627;DHT22;29217;52.586;13.442;2023-06-26T09:54:36;28.20;99.90
43627;DHT22;29217;52.586;13.442;2023-06-26T09:57:12;28.40;99.90
43627;DHT22;29217;52.586;13.442;2023-06-26T09:59:39;28.40;99.90
43627;DHT22;29217;52.586;13.442;2023-06-26T10:02:05;28.50;99.90
43627;DHT22;29217;52.586;13.442;2023-06-26T10:04:34;28.50;99.90
43627;DHT22;29217;52.586;13.442;2023-06-26T10:07:15;28.60;99.90
43627;DHT22;29217;52.586;13.442;2023-06-26T10:09:43;28.60;99.90
43627;DHT22;29217;52.586;13.442;2023-06-26T10:14:37;28.70;99.90
43627;DHT22;29217;52.586;13.442;2023-06-26T10:17:10;28.70;99.90
43627;DHT22;29217;52.586;13.442;2023-06-26T10:19:41;28.60;99.90
43627;DHT22;29217;52.586;13.442;2023-06-26T10:22:07;28.70;99.90
43627;DHT22;29217;52.586;13.442;2023-06-26T10:24:35;28.80;99.90
43627;DHT22;29217;52.586;13.442;2023-06-26T10:27:11;28.80;99.90
43627;DHT22;29217;52.586;13.442;2023-06-26T10:29:40;28.90;99.90
43627;DHT22;29217;52.586;13.442;2023-06-26T10:32:07;28.90;99.90
43627;DHT22;29217;52.586;13.442;2023-06-26T10:34:34;29.00;99.90
43627;DHT22;29217;52.586;13.442;2023-06-26T10:37:00;29.10;99.90
43627;DHT22;29217;52.586;13.442;2023-06-26T10:39:27;29.30;99.90
43627;DHT22;29217;52.586;13.442;2023-06-26T10:41:55;29.40;99.90
43627;DHT22;29217;52.586;13.442;2023-06-26T10:44:40;29.40;99.90
43627;DHT22;29217;52.586;13.442;2023-06-26T10:47:12;29.50;99.90
43627;DHT22;29217;52.586;13.442;2023-06-26T10:49:38;29.60;99.90
43627;DHT22;29217;52.586;13.442;2023-06-26T10:52:07;29.60;99.90
43627;DHT22;29217;52.586;13.442;2023-06-26T10:54:33;29.60;99.90
43627;DHT22;29217;52.586;13.442;2023-06-26T10:56:59;29.60;99.90
43627;DHT22;29217;52.586;13.442;2023-06-26T10:59:28;29.70;99.90
43627;DHT22;29217;52.586;13.442;2023-06-26T11:04:36;29.80;99.90
43627;DHT22;29217;52.586;13.442;2023-06-26T11:10:14;29.80;99.90
43627;DHT22;29217;52.586;13.442;2023-06-26T11:12:42;29.90;99.90
43627;DHT22;29217;52.586;13.442;2023-06-26T11:15:13;30.00;99.90
43627;DHT22;29217;52.586;13.442;2023-06-26T11:17:39;30.30;99.90
43627;DHT22;29217;52.586;13.442;2023-06-26T11:20:08;30.50;99.90
43627;DHT22;29217;52.586;13.442;2023-06-26T11:22:36;30.70;99.90
43627;DHT22;29217;52.586;13.442;2023-06-26T11:25:02;30.90;99.90
43627;DHT22;29217;52.586;13.442;2023-06-26T11:30:05;31.20;99.90
43627;DHT22;29217;52.586;13.442;2023-06-26T11:32:31;30.70;99.90
43627;DHT22;29217;52.586;13.442;2023-06-26T11:35:00;30.60;99.90
43627;DHT22;29217;52.586;13.442;2023-06-26T11:37:26;30.80;99.90
43627;DHT22;29217;52.586;13.442;2023-06-26T11:39:52;30.80;99.90
43627;DHT22;29217;52.586;13.442;2023-06-26T11:42:19;31.10;99.90
43627;DHT22;29217;52.586;13.442;2023-06-26T11:44:45;31.30;99.90
43627;DHT22;29217;52.586;13.442;2023-06-26T11:49:46;31.50;99.90
43627;DHT22;29217;52.586;13.442;2023-06-26T11:52:12;31.30;99.90
43627;DHT22;29217;52.586;13.442;2023-06-26T11:54:37;31.20;99.90
43627;DHT22;29217;52.586;13.442;2023-06-26T11:57:04;31.40;99.90
43627;DHT22;29217;52.586;13.442;2023-06-26T11:59:38;31.80;99.90
43627;DHT22;29217;52.586;13.442;2023-06-26T12:02:12;32.10;99.90
43627;DHT22;29217;52.586;13.442;2023-06-26T12:04:41;32.20;99.90
43627;DHT22;29217;52.586;13.442;2023-06-26T12:07:08;32.40;99.90
43627;DHT22;29217;52.586;13.442;2023-06-26T12:09:43;32.50;99.90
43627;DHT22;29217;52.586;13.442;2023-06-26T12:12:10;32.70;99.90
43627;DHT22;29217;52.586;13.442;2023-06-26T12:14:36;32.10;99.90
43627;DHT22;29217;52.586;13.442;2023-06-26T12:17:11;31.90;99.90
43627;DHT22;29217;52.586;13.442;2023-06-26T12:19:43;32.20;99.90
43627;DHT22;29217;52.586;13.442;2023-06-26T12:22:09;32.40;99.90
43627;DHT22;29217;52.586;13.442;2023-06-26T12:24:38;32.50;99.90
43627;DHT22;29217;52.586;13.442;2023-06-26T12:27:12;32.70;99.90
43627;DHT22;29217;52.586;13.442;2023-06-26T12:29:40;33.00;99.90
43627;DHT22;29217;52.586;13.442;2023-06-26T12:32:10;33.10;99.90
43627;DHT22;29217;52.586;13.442;2023-06-26T12:34:37;33.10;99.90
43627;DHT22;29217;52.586;13.442;2023-06-26T12:37:05;33.20;99.90
43627;DHT22;29217;52.586;13.442;2023-06-26T12:42:15;33.30;99.90
43627;DHT22;29217;52.586;13.442;2023-06-26T12:44:41;33.40;99.90
43627;DHT22;29217;52.586;13.442;2023-06-26T12:47:06;33.30;99.90
43627;DHT22;29217;52.586;13.442;2023-06-26T12:49:37;33.20;99.90
43627;DHT22;29217;52.586;13.442;2023-06-26T12:52:09;33.10;99.90
43627;DHT22;29217;52.586;13.442;2023-06-26T12:54:36;33.10;99.90
43627;DHT22;29217;52.586;13.442;2023-06-26T12:57:02;33.10;99.90
43627;DHT22;29217;52.586;13.442;2023-06-26T12:59:29;33.20;99.90
43627;DHT22;29217;52.586;13.442;2023-06-26T13:01:55;33.30;99.90
43627;DHT22;29217;52.586;13.442;2023-06-26T13:04:21;32.80;99.90
43627;DHT22;29217;52.586;13.442;2023-06-26T13:06:47;32.60;99.90
43627;DHT22;29217;52.586;13.442;2023-06-26T13:09:12;32.20;99.90
43627;DHT22;29217;52.586;13.442;2023-06-26T13:11:38;31.80;99.90
43627;DHT22;29217;52.586;13.442;2023-06-26T13:14:04;31.50;99.90
43627;DHT22;29217;52.586;13.442;2023-06-26T13:16:29;31.20;99.90
43627;DHT22;29217;52.586;13.442;2023-06-26T13:18:55;31.00;99.90
43627;DHT22;29217;52.586;13.442;2023-06-26T13:21:23;30.80;99.90
43627;DHT22;29217;52.586;13.442;2023-06-26T13:23:49;30.60;99.90
43627;DHT22;29217;52.586;13.442;2023-06-26T13:26:14;30.40;99.90
43627;DHT22;29217;52.586;13.442;2023-06-26T13:28:40;30.10;99.90
43627;DHT22;29217;52.586;13.442;2023-06-26T13:31:06;30.00;99.90
43627;DHT22;29217;52.586;13.442;2023-06-26T13:33:32;29.80;99.90
43627;DHT22;29217;52.586;13.442;2023-06-26T13:35:57;29.80;99.90
43627;DHT22;29217;52.586;13.442;2023-06-26T13:38:24;29.60;99.90
43627;DHT22;29217;52.586;13.442;2023-06-26T13:40:51;29.50;99.90
43627;DHT22;29217;52.586;13.442;2023-06-26T13:43:17;29.40;99.90
43627;DHT22;29217;52.586;13.442;2023-06-26T13:45:42;29.30;99.90
43627;DHT22;29217;52.586;13.442;2023-06-26T13:48:08;29.20;99.90
43627;DHT22;29217;52.586;13.442;2023-06-26T13:50:33;29.20;99.90
43627;DHT22;29217;52.586;13.442;2023-06-26T13:52:59;29.20;99.90
43627;DHT22;29217;52.586;13.442;2023-06-26T13:55:25;29.20;99.90
43627;DHT22;29217;52.586;13.442;2023-06-26T13:57:50;29.10;99.90
43627;DHT22;29217;52.586;13.442;2023-06-26T14:00:16;29.00;99.90
43627;DHT22;29217;52.586;13.442;2023-06-26T14:02:45;28.80;99.90
43627;DHT22;29217;52.586;13.442;2023-06-26T14:05:11;28.80;99.90
43627;DHT22;29217;52.586;13.442;2023-06-26T14:07:37;28.70;99.90
43627;DHT22;29217;52.586;13.442;2023-06-26T14:10:04;28.60;99.90
43627;DHT22;29217;52.586;13.442;2023-06-26T14:12:31;28.50;99.90
43627;DHT22;29217;52.586;13.442;2023-06-26T14:14:57;28.30;99.90
43627;DHT22;29217;52.586;13.442;2023-06-26T14:17:23;28.30;99.90
43627;DHT22;29217;52.586;13.442;2023-06-26T14:19:51;28.20;99.90
43627;DHT22;29217;52.586;13.442;2023-06-26T14:22:17;28.10;99.90
43627;DHT22;29217;52.586;13.442;2023-06-26T14:24:43;27.90;99.90
43627;DHT22;29217;52.586;13.442;2023-06-26T14:27:09;27.20;99.90
43627;DHT22;29217;52.586;13.442;2023-06-26T14:29:36;26.40;99.90
43627;DHT22;29217;52.586;13.442;2023-06-26T14:32:01;25.00;99.90
43627;DHT22;29217;52.586;13.442;2023-06-26T14:34:27;23.80;99.90
43627;DHT22;29217;52.586;13.442;2023-06-26T14:36:52;23.00;99.90
43627;DHT22;29217;52.586;13.442;2023-06-26T14:39:18;22.50;99.90
43627;DHT22;29217;52.586;13.442;2023-06-26T14:41:44;22.20;99.90
43627;DHT22;29217;52.586;13.442;2023-06-26T14:44:09;22.10;99.90
43627;DHT22;29217;52.586;13.442;2023-06-26T14:46:36;22.10;99.90
43627;DHT22;29217;52.586;13.442;2023-06-26T14:49:03;21.90;99.90
43627;DHT22;29217;52.586;13.442;2023-06-26T14:51:29;21.90;99.90
43627;DHT22;29217;52.586;13.442;2023-06-26T14:53:54;21.70;99.90
43627;DHT22;29217;52.586;13.442;2023-06-26T14:56:20;21.80;99.90
43627;DHT22;29217;52.586;13.442;2023-06-26T14:58:46;21.80;99.90
43627;DHT22;29217;52.586;13.442;2023-06-26T15:01:14;21.80;99.90
43627;DHT22;29217;52.586;13.442;2023-06-26T15:03:48;21.70;99.90
43627;DHT22;29217;52.586;13.442;2023-06-26T15:06:14;21.80;99.90
43627;DHT22;29217;52.586;13.442;2023-06-26T15:08:39;21.80;99.90
43627;DHT22;29217;52.586;13.442;2023-06-26T15:11:05;21.70;99.90
43627;DHT22;29217;52.586;13.442;2023-06-26T15:13:31;21.60;99.90
43627;DHT22;29217;52.586;13.442;2023-06-26T15:15:56;21.40;99.90
43627;DHT22;29217;52.586;13.442;2023-06-26T15:18:22;21.10;99.90
43627;DHT22;29217;52.586;13.442;2023-06-26T15:20:48;21.00;99.90
43627;DHT22;29217;52.586;13.442;2023-06-26T15:23:13;20.80;99.90
43627;DHT22;29217;52.586;13.442;2023-06-26T15:25:39;20.60;99.90
43627;DHT22;29217;52.586;13.442;2023-06-26T15:28:05;20.60;99.90
43627;DHT22;29217;52.586;13.442;2023-06-26T15:30:32;20.50;99.90